Hovedside
METAR-TAF:

METAR-TAF

Lufthavner :

Roskilde lufthavn

Roskilde, Danmark

breddegrad: 55-35N, lengdegrad: 012-08E, høyde over havet: 44 m

Gjeldene værobservasjon

Denne rapporten ble laget for 35 minutter siden, klokken 15:20 UTC
Vind 5 kt fra Nordvest, skiftende mellom Vest og Nord
Temperatur 21°C
Luftfuktighet 53%
Trykk 1020 hPa
Sikt 10 km eller mer

METAR: EKRK 241520Z AUTO 31005KT 270V360 9999 NCD 21/11 Q1020

Tid: 17:55 (15:55 UTC)

Varsel

Denne rapporten ble laget for 1 time og 51 minutter siden, klokken 14:04 UTC
Varsel gyldig fra 24. klokken 15 UTC til 24. klokken 24 UTC
Vind 5 kt fra Vest-nordvest
Sikt 10 km eller mer
ingen skyer under 1500 m og ingen bygeskyer

TAF: EKRK 241404Z 2415/2424 30005KT CAVOK

Værobservasjoner og værvarsel for over 4000 flyplasser (METAR- og TAF-rapporter).

Tilgjengelige stasjoner er representert av de røde og gule prikkene på kartet.

Hold musepekeren over prikken for å se navnet på stasjonen.

Klikk så for å se værobservasjoner og -varsler.

For å forandre kartet kan du klikke på den grønne knappen med svart kryss for å zoome inn, på den grønne knappen med strek for å zoome ut, eller på de grønne pilene for å se tilstøtende kart.


METAR-TAF: